Time;durP1;ratioP1;P1;durP2;ratioP2;P2;SDS_P1;SDS_P2;PMS_P1;PMS_P2;Temp;Humidity;BMP_temperature;BMP_pressure;BME280_temperature;BME280_humidity;BME280_pressure;Samples;Min_cycle;Max_cycle;Signal;HPM_P1;HPM_P2
2022/01/13 00:02:12;;;;;;;15.90;10.90;;;16.60;57.20;;;;;;5073085;28;20444;-82
2022/01/13 00:04:38;;;;;;;13.93;9.68;;;16.60;57.20;;;;;;5091835;28;20019;-83
2022/01/13 00:07:05;;;;;;;18.50;11.50;;;;;;;;;;5091465;28;20029;-82
2022/01/13 00:09:30;;;;;;;13.35;10.13;;;16.60;57.20;;;;;;5106425;28;20027;-82
2022/01/13 00:11:57;;;;;;;16.85;11.02;;;16.50;57.80;;;;;;5111675;28;20028;-82
2022/01/13 00:14:37;;;;;;;17.02;10.32;;;16.50;57.20;;;;;;5093331;28;20391;-82
2022/01/13 00:17:34;;;;;;;16.83;10.77;;;16.50;57.20;;;;;;5111750;28;20092;-82
2022/01/13 00:25:42;;;;;;;15.07;9.82;;;;;;;;;;5111544;28;20080;-82
2022/01/13 00:28:20;;;;;;;14.65;10.43;;;;;;;;;;5111485;28;20102;-82
2022/01/13 00:30:51;;;;;;;15.75;11.13;;;;;;;;;;5111565;28;20042;-82
2022/01/13 00:33:23;;;;;;;14.05;10.40;;;;;;;;;;5111147;28;20035;-80
2022/01/13 00:35:49;;;;;;;15.27;9.90;;;;;;;;;;5093178;28;20119;-80
2022/01/13 00:38:15;;;;;;;15.52;10.32;;;;;;;;;;5112952;28;20039;-80
2022/01/13 00:40:41;;;;;;;13.80;9.85;;;;;;;;;;5115892;28;20020;-81
2022/01/13 00:43:07;;;;;;;15.52;10.40;;;;;;;;;;5115812;28;20051;-80
2022/01/13 00:45:33;;;;;;;14.95;10.70;;;;;;;;;;5115283;28;20084;-80
2022/01/13 00:47:59;;;;;;;14.65;10.35;;;;;;;;;;5096707;28;20418;-80
2022/01/13 00:50:25;;;;;;;15.27;10.43;;;;;;;;;;5096837;28;20028;-81
2022/01/13 00:52:51;;;;;;;14.80;10.43;;;;;;;;;;5115208;28;20426;-80
2022/01/13 00:55:21;;;;;;;13.82;10.10;;;;;;;;;;5096740;28;20019;-80
2022/01/13 00:57:48;;;;;;;14.82;10.25;;;;;;;;;;5096635;28;20092;-80
2022/01/13 01:00:14;;;;;;;15.30;10.50;;;;;;;;;;5096428;28;20028;-80
2022/01/13 01:02:40;;;;;;;15.15;10.20;;;16.40;56.50;;;;;;5115349;28;20028;-81
2022/01/13 01:05:06;;;;;;;14.55;10.02;;;16.40;57.00;;;;;;5115136;28;20020;-81
2022/01/13 01:07:31;;;;;;;13.70;10.13;;;16.30;57.00;;;;;;5114787;28;20038;-81
2022/01/13 01:09:58;;;;;;;12.43;9.25;;;16.30;56.90;;;;;;5096164;28;20024;-81
2022/01/13 01:12:24;;;;;;;14.18;10.32;;;16.40;56.90;;;;;;5096422;28;20042;-81
2022/01/13 01:14:56;;;;;;;15.98;10.07;;;16.40;56.90;;;;;;5114811;28;20019;-81
2022/01/13 01:17:21;;;;;;;12.75;9.40;;;16.40;56.90;;;;;;5114627;28;20039;-81
2022/01/13 01:19:50;;;;;;;15.75;10.65;;;16.40;56.80;;;;;;5096115;28;20023;-81
2022/01/13 01:27:40;;;;;;;15.00;10.50;;;16.40;56.80;;;;;;5114493;28;20427;-81
2022/01/13 01:30:15;;;;;;;13.32;9.52;;;16.40;56.70;;;;;;5096171;28;20019;-81
2022/01/13 01:32:41;;;;;;;13.18;9.55;;;16.40;56.70;;;;;;5114754;28;20032;-81
2022/01/13 01:35:13;;;;;;;13.68;9.63;;;16.40;56.70;;;;;;5114888;28;20072;-80
2022/01/13 01:37:40;;;;;;;13.77;9.45;;;;;;;;;;5114865;28;20391;-80
2022/01/13 01:40:07;;;;;;;14.25;10.20;;;;;;;;;;5114344;28;20023;-80
2022/01/13 01:42:33;;;;;;;13.23;9.90;;;;;;;;;;5095649;28;20449;-81
2022/01/13 01:45:00;;;;;;;13.85;9.70;;;;;;;;;;5096094;28;20033;-81
2022/01/13 01:47:29;;;;;;;11.30;8.82;;;;;;;;;;5114016;28;20020;-80
2022/01/13 01:49:57;;;;;;;12.38;9.07;;;;;;;;;;5112816;28;20027;-81
2022/01/13 01:52:25;;;;;;;12.20;9.05;;;;;;;;;;5095747;28;20044;-80
2022/01/13 01:54:51;;;;;;;12.18;9.18;;;;;;;;;;5114081;28;20023;-79
2022/01/13 01:57:19;;;;;;;12.57;9.05;;;;;;;;;;5095433;28;20036;-79
2022/01/13 01:59:45;;;;;;;13.73;9.65;;;;;;;;;;5113622;28;20027;-80
2022/01/13 02:02:13;;;;;;;11.98;9.20;;;;;;;;;;5114059;28;20413;-80
2022/01/13 02:04:39;;;;;;;12.35;9.40;;;;;;;;;;5095895;28;20023;-80
2022/01/13 02:07:07;;;;;;;11.65;9.05;;;;;;;;;;5095553;28;20059;-79
2022/01/13 02:09:37;;;;;;;14.15;10.05;;;;;;;;;;5113123;28;20507;-81
2022/01/13 02:12:10;;;;;;;12.93;9.90;;;;;;;;;;5113384;28;20559;-80
2022/01/13 02:14:49;;;;;;;11.68;9.00;;;;;;;;;;5113843;28;20026;-81
2022/01/13 02:17:22;;;;;;;12.65;8.98;;;;;;;;;;5113467;28;20114;-80
2022/01/13 02:19:49;;;;;;;13.35;9.20;;;;;;;;;;5113202;28;20475;-80
2022/01/13 02:22:15;;;;;;;12.07;8.75;;;;;;;;;;5113298;28;20094;-81
2022/01/13 02:24:41;;;;;;;12.98;9.23;;;;;;;;;;5095190;28;20024;-80
2022/01/13 02:27:07;;;;;;;13.02;9.25;;;;;;;;;;5113750;28;20468;-80
2022/01/13 02:29:34;;;;;;;13.18;9.43;;;;;;;;;;5112661;28;20494;-81
2022/01/13 02:32:00;;;;;;;11.65;8.82;;;;;;;;;;5094748;28;20076;-81
2022/01/13 02:34:26;;;;;;;10.27;8.30;;;;;;;;;;5094809;28;20399;-81
2022/01/13 02:36:56;;;;;;;11.85;8.60;;;;;;;;;;5113246;28;20027;-82
2022/01/13 02:39:23;;;;;;;10.85;8.40;;;;;;;;;;5094282;28;20445;-81
2022/01/13 02:41:49;;;;;;;11.00;8.45;;;;;;;;;;5113203;28;20088;-82
2022/01/13 02:44:18;;;;;;;10.82;8.18;;;;;;;;;;5112880;28;20464;-83
2022/01/13 02:49:14;;;;;;;12.13;8.82;;;;;;;;;;5112425;28;20028;-81
2022/01/13 02:51:41;;;;;;;11.48;8.95;;;;;;;;;;5113179;28;20030;-82
2022/01/13 02:54:08;;;;;;;10.15;7.97;;;;;;;;;;5113464;28;20055;-82
2022/01/13 02:56:34;;;;;;;10.98;8.35;;;;;;;;;;5112215;28;20023;-81
2022/01/13 02:59:00;;;;;;;10.45;7.55;;;;;;;;;;5112803;28;20066;-81
2022/01/13 03:01:26;;;;;;;10.18;8.15;;;;;;;;;;5112453;28;20053;-81
2022/01/13 03:03:53;;;;;;;10.25;7.82;;;;;;;;;;5112799;28;20076;-80
2022/01/13 03:06:34;;;;;;;10.63;8.02;;;;;;;;;;5112694;28;20155;-82
2022/01/13 03:09:01;;;;;;;10.65;7.43;;;;;;;;;;5074006;28;20391;-81
2022/01/13 03:11:33;;;;;;;10.77;7.88;;;;;;;;;;5092029;28;20443;-82
2022/01/13 03:13:59;;;;;;;9.60;7.82;;;;;;;;;;5092339;28;20073;-82
2022/01/13 03:16:25;;;;;;;9.25;7.13;;;;;;;;;;5091838;28;20460;-82
2022/01/13 03:18:51;;;;;;;10.07;7.60;;;;;;;;;;5110366;28;20043;-82
2022/01/13 03:21:17;;;;;;;9.55;7.47;;;;;;;;;;5112086;28;20024;-82
2022/01/13 03:23:44;;;;;;;8.05;6.45;;;;;;;;;;5112272;28;20027;-81
2022/01/13 03:26:10;;;;;;;9.07;6.78;;;;;;;;;;5112767;28;20468;-82
2022/01/13 03:28:50;;;;;;;8.98;7.03;;;;;;;;;;5111897;28;20098;-81
2022/01/13 03:31:17;;;;;;;9.90;7.55;;;;;;;;;;5093740;28;20034;-81
2022/01/13 03:33:43;;;;;;;10.90;7.63;;;;;;;;;;5112107;28;20039;-81
2022/01/13 03:36:09;;;;;;;8.85;7.25;;;;;;;;;;5111980;28;20068;-82
2022/01/13 03:38:35;;;;;;;8.98;7.10;;;;;;;;;;5111799;28;20460;-82
2022/01/13 03:41:02;;;;;;;8.75;6.68;;;;;;;;;;5111874;28;20035;-82
2022/01/13 03:43:28;;;;;;;9.75;7.25;;;;;;;;;;5111643;28;20032;-82
2022/01/13 03:45:54;;;;;;;8.73;6.78;;;;;;;;;;5111619;28;20111;-81
2022/01/13 03:48:20;;;;;;;9.93;7.28;;;;;;;;;;5111768;28;20376;-81
2022/01/13 03:50:46;;;;;;;9.30;7.50;;;;;;;;;;5112011;28;20057;-82
2022/01/13 03:53:18;;;;;;;9.20;7.32;;;;;;;;;;5111562;28;20016;-82
2022/01/13 03:56:02;;;;;;;9.65;7.00;;;;;;;;;;5111466;28;20111;-84
2022/01/13 03:58:47;;;;;;;8.32;6.63;;;;;;;;;;5093147;28;20094;-83
2022/01/13 04:01:33;;;;;;;9.23;7.28;;;;;;;;;;5111770;28;20038;-83
2022/01/13 04:03:59;;;;;;;;;;;;;;;;;;5093934;28;20118;-83
2022/01/13 04:06:34;;;;;;;9.77;7.18;;;;;;;;;;5111001;28;19943;-82
2022/01/13 04:09:00;;;;;;;9.02;7.35;;;;;;;;;;5111640;28;20032;-82
2022/01/13 04:11:31;;;;;;;8.40;6.85;;;;;;;;;;5111371;28;20034;-82
2022/01/13 04:14:04;;;;;;;6.93;5.60;;;;;;;;;;5093112;28;20107;-82
2022/01/13 04:16:31;;;;;;;8.40;6.78;;;;;;;;;;5110849;28;20077;-82
2022/01/13 04:19:02;;;;;;;8.55;6.47;;;;;;;;;;5111474;28;20023;-82
2022/01/13 04:21:28;;;;;;;8.13;6.38;;;;;;;;;;5092962;28;20027;-81
2022/01/13 04:23:56;;;;;;;8.50;6.57;;;;;;;;;;5111193;28;20428;-81
2022/01/13 04:26:28;;;;;;;7.47;6.40;;;;;;;;;;5110989;28;20027;-81
2022/01/13 04:31:37;;;;;;;7.75;6.10;;;;;;;;;;5111891;28;20510;-81
2022/01/13 04:34:03;;;;;;;8.20;6.55;;;;;;;;;;5111224;28;20031;-81
2022/01/13 04:36:29;;;;;;;7.25;6.10;;;;;;;;;;5111133;28;20037;-81
2022/01/13 04:38:55;;;;;;;8.60;6.85;;;;;;;;;;5093151;28;20073;-81
2022/01/13 04:41:36;;;;;;;7.88;6.07;;;;;;;;;;5111164;28;20039;-82
2022/01/13 04:44:09;;;;;;;7.28;6.20;;;;;;;;;;5110942;28;20039;-82
2022/01/13 04:46:36;;;;;;;7.68;6.25;;;;;;;;;;5092804;28;20027;-81
2022/01/13 04:49:03;;;;;;;7.45;5.75;;;;;;;;;;5111377;28;20027;-81
2022/01/13 04:51:29;;;;;;;7.25;5.78;;;;;;;;;;5093017;28;20386;-80
2022/01/13 04:53:55;;;;;;;7.78;6.18;;;;;;;;;;5110889;28;20023;-81
2022/01/13 04:57:21;;;;;;;7.97;6.30;;;;;;;;;;5092732;28;20069;-81
2022/01/13 04:59:16;;;;;;;7.35;5.85;;;;;;;;;;5097407;28;20039;-81
2022/01/13 05:01:42;;;;;;;8.00;6.32;;;;;;;;;;5111221;28;20099;-82
2022/01/13 05:04:09;;;;;;;7.60;6.00;;;;;;;;;;5111011;28;20444;-82
2022/01/13 05:06:35;;;;;;;7.50;5.95;;;;;;;;;;5110943;28;20028;-81
2022/01/13 05:09:01;;;;;;;8.00;6.60;;;;;;;;;;5111044;28;20084;-81
2022/01/13 05:11:27;;;;;;;6.95;5.50;;;;;;;;;;5092573;28;20024;-81
2022/01/13 05:13:53;;;;;;;7.93;6.10;;;;;;;;;;5092591;28;20062;-80
2022/01/13 05:16:29;;;;;;;6.63;5.47;;;;;;;;;;5110796;28;20027;-80
2022/01/13 05:21:45;;;;;;;7.50;6.03;;;;;;;;;;5111116;28;20035;-80
2022/01/13 05:24:11;;;;;;;6.85;5.38;;;;;;;;;;5111322;28;20015;-80
2022/01/13 05:26:37;;;;;;;8.20;6.30;;;;;;;;;;5115081;28;20023;-81
2022/01/13 05:29:03;;;;;;;8.32;6.55;;;16.40;56.70;;;;;;5096228;28;20062;-80
2022/01/13 05:31:29;;;;;;;8.27;6.35;;;16.80;55.30;;;;;;5114165;28;20024;-80
2022/01/13 05:33:55;;;;;;;7.93;6.47;;;16.80;55.40;;;;;;5113966;28;20023;-80
2022/01/13 05:36:20;;;;;;;7.88;6.38;;;16.80;55.40;;;;;;5113871;28;20028;-80
2022/01/13 05:38:46;;;;;;;8.27;6.32;;;16.80;55.30;;;;;;5114375;28;20031;-80
2022/01/13 05:41:12;;;;;;;7.22;6.05;;;16.80;55.30;;;;;;5095885;28;20047;-80
2022/01/13 05:43:37;;;;;;;7.85;6.03;;;16.70;55.30;;;;;;5114232;28;20070;-80
2022/01/13 05:46:04;;;;;;;7.68;6.78;;;16.80;55.40;;;;;;5095854;28;20020;-80
2022/01/13 05:48:31;;;;;;;6.80;5.70;;;16.70;55.30;;;;;;5113973;28;20395;-80
2022/01/13 05:50:57;;;;;;;6.97;5.68;;;16.70;55.20;;;;;;5114020;28;20084;-81
2022/01/13 05:53:22;;;;;;;8.32;6.35;;;16.70;55.20;;;;;;5113961;28;20028;-81
2022/01/13 05:55:48;;;;;;;7.95;6.78;;;16.70;55.20;;;;;;5114161;28;20024;-81
2022/01/13 05:58:14;;;;;;;7.18;5.57;;;16.70;55.20;;;;;;5095450;28;20035;-80
2022/01/13 06:00:40;;;;;;;7.88;6.18;;;16.70;55.10;;;;;;5113747;28;20018;-80
2022/01/13 06:03:06;;;;;;;7.10;5.53;;;16.70;55.10;;;;;;5113482;28;20032;-81
2022/01/13 06:05:32;;;;;;;7.40;5.47;;;16.70;55.10;;;;;;5113689;28;20027;-80
2022/01/13 06:07:58;;;;;;;6.88;5.47;;;16.70;55.10;;;;;;5113920;28;20223;-81
2022/01/13 06:10:24;;;;;;;7.03;5.70;;;16.80;55.10;;;;;;5113312;28;20024;-80
2022/01/13 06:12:51;;;;;;;6.03;5.20;;;16.80;55.10;;;;;;5095653;28;20024;-79
2022/01/13 06:15:19;;;;;;;7.32;5.90;;;16.80;55.10;;;;;;5113752;28;20031;-81
2022/01/13 06:17:47;;;;;;;7.45;6.07;;;16.80;55.10;;;;;;5113592;28;20088;-80
2022/01/13 06:20:13;;;;;;;6.75;5.20;;;16.80;55.20;;;;;;5113199;28;20522;-83
2022/01/13 06:22:41;;;;;;;7.97;6.40;;;16.80;55.10;;;;;;5114049;28;20051;-81
2022/01/13 06:25:08;;;;;;;7.43;5.85;;;16.80;55.10;;;;;;5095444;28;20071;-81
2022/01/13 06:27:34;;;;;;;7.03;5.97;;;16.80;55.10;;;;;;5095192;28;20087;-84
2022/01/13 06:30:00;;;;;;;7.00;5.68;;;16.80;55.10;;;;;;5113499;28;20103;-80
2022/01/13 06:32:26;;;;;;;7.00;5.35;;;16.80;55.00;;;;;;5113199;28;20111;-80
2022/01/13 06:34:51;;;;;;;7.70;6.07;;;16.90;55.10;;;;;;5112987;28;20020;-82
2022/01/13 06:37:18;;;;;;;7.00;5.63;;;16.80;55.00;;;;;;5113187;28;20024;-85
2022/01/13 06:39:44;;;;;;;6.35;5.30;;;16.90;55.10;;;;;;5114837;28;20102;-84
2022/01/13 06:42:10;;;;;;;9.00;5.60;;;16.90;55.30;;;;;;5095165;28;20134;-86
2022/01/13 06:44:36;;;;;;;6.75;5.10;;;16.90;55.70;;;;;;5098321;27;20131;-84
2022/01/13 06:47:02;;;;;;;7.20;5.05;;;16.90;55.90;;;;;;5094277;27;20479;-82
2022/01/13 06:49:28;;;;;;;6.68;5.28;;;16.90;56.20;;;;;;5106269;27;20502;-80
2022/01/13 06:51:54;;;;;;;7.43;5.55;;;16.90;56.80;;;;;;5114165;27;20084;-79
2022/01/13 06:54:19;;;;;;;6.90;5.38;;;16.90;56.40;;;;;;5111734;28;20011;-82
2022/01/13 06:56:45;;;;;;;7.25;5.65;;;16.90;56.50;;;;;;5111287;27;20102;-79
2022/01/13 06:59:12;;;;;;;10.18;6.00;;;17.00;56.70;;;;;;5092870;28;20063;-80
2022/01/13 07:01:39;;;;;;;8.75;5.43;;;;;;;;;;5104540;27;20015;-84
2022/01/13 07:04:05;;;;;;;7.78;5.22;;;;;;;;;;5096629;27;20031;-81
2022/01/13 07:06:33;;;;;;;10.77;4.63;;;17.00;56.80;;;;;;5107255;27;20131;-83
2022/01/13 07:08:59;;;;;;;7.28;5.50;;;17.10;57.30;;;;;;5091847;28;20077;-83
2022/01/13 07:11:24;;;;;;;6.45;5.40;;;17.10;57.30;;;;;;5114326;27;20057;-83
2022/01/13 07:13:50;;;;;;;7.50;5.38;;;17.10;57.10;;;;;;5108778;27;20022;-83
2022/01/13 07:16:16;;;;;;;8.68;5.38;;;17.10;57.10;;;;;;5116236;27;20019;-88
2022/01/13 07:18:41;;;;;;;6.95;5.80;;;17.10;57.60;;;;;;5125810;27;20483;-82
2022/01/13 07:21:12;;;;;;;7.75;5.50;;;17.10;57.80;;;;;;5116674;27;20470;-83
2022/01/13 07:23:37;;;;;;;12.13;6.10;;;17.20;57.80;;;;;;5099808;27;20080;-84
2022/01/13 07:26:03;;;;;;;6.95;5.65;;;17.20;57.80;;;;;;5123687;27;20110;-81
2022/01/13 07:28:30;;;;;;;7.18;5.22;;;17.20;57.90;;;;;;5127249;27;20526;-86
2022/01/13 07:30:56;;;;;;;9.70;6.20;;;17.20;57.70;;;;;;5111273;27;20027;-81
2022/01/13 07:33:22;;;;;;;9.23;5.35;;;17.20;57.60;;;;;;5111705;27;20026;-83
2022/01/13 07:35:48;;;;;;;7.50;5.20;;;17.20;57.50;;;;;;5110702;28;20017;-82
2022/01/13 07:38:13;;;;;;;7.07;5.75;;;17.20;57.50;;;;;;5108498;28;20566;-79
2022/01/13 07:40:39;;;;;;;10.30;4.55;;;17.20;57.50;;;;;;5091734;28;20024;-78
2022/01/13 07:43:05;;;;;;;8.55;5.30;;;17.20;57.50;;;;;;5105466;28;20106;-81
2022/01/13 07:45:30;;;;;;;7.70;5.55;;;17.20;57.40;;;;;;5109138;28;20323;-80
2022/01/13 07:47:56;;;;;;;8.02;5.25;;;17.20;57.20;;;;;;5107904;28;20024;-80
2022/01/13 07:50:22;;;;;;;6.50;4.88;;;17.20;58.10;;;;;;5110093;28;20028;-79
2022/01/13 07:52:48;;;;;;;10.02;5.53;;;17.20;57.40;;;;;;5111846;28;20022;-80
2022/01/13 07:55:14;;;;;;;7.85;5.53;;;17.10;57.40;;;;;;5110035;28;20031;-80
2022/01/13 07:57:39;;;;;;;7.47;5.57;;;17.10;57.30;;;;;;5111041;28;20042;-81
2022/01/13 08:00:08;;;;;;;6.82;5.07;;;17.10;57.30;;;;;;5111856;28;20024;-78
2022/01/13 08:02:34;;;;;;;6.72;5.07;;;17.10;57.10;;;;;;5111163;28;20031;-79
2022/01/13 08:04:59;;;;;;;7.63;5.55;;;17.10;57.10;;;;;;5093500;28;20388;-78
2022/01/13 08:07:25;;;;;;;6.72;4.88;;;17.00;57.00;;;;;;5110777;28;20069;-77
2022/01/13 08:09:51;;;;;;;7.10;4.93;;;17.00;57.00;;;;;;5101920;28;20020;-79
2022/01/13 08:12:16;;;;;;;7.57;4.95;;;17.00;57.00;;;;;;5115516;27;20028;-80
2022/01/13 08:14:42;;;;;;;6.82;5.20;;;17.00;56.90;;;;;;5111630;28;20027;-82
2022/01/13 08:17:18;;;;;;;7.30;4.70;;;17.00;56.90;;;;;;5111907;28;20066;-80
2022/01/13 08:19:46;;;;;;;7.18;5.57;;;16.90;56.90;;;;;;5111991;28;20028;-79
2022/01/13 08:22:16;;;;;;;5.93;4.63;;;16.90;56.80;;;;;;5111116;28;20036;-81
2022/01/13 08:24:43;;;;;;;6.55;4.68;;;16.90;56.80;;;;;;5111434;28;20076;-85
2022/01/13 08:27:08;;;;;;;7.97;5.82;;;16.90;56.70;;;;;;5121361;28;20092;-83
2022/01/13 08:29:35;;;;;;;7.75;5.18;;;16.90;57.80;;;;;;5096157;28;20445;-79
2022/01/13 08:32:01;;;;;;;6.97;5.20;;;16.80;57.20;;;;;;5092799;28;20134;-80
2022/01/13 08:34:26;;;;;;;8.27;5.93;;;16.90;57.00;;;;;;5110944;28;20032;-79
2022/01/13 08:36:52;;;;;;;7.35;5.80;;;16.90;56.90;;;;;;5123659;28;20394;-80
2022/01/13 08:39:18;;;;;;;6.15;4.95;;;16.80;56.80;;;;;;5113411;28;20165;-81
2022/01/13 08:41:45;;;;;;;7.13;5.63;;;16.80;57.30;;;;;;5121676;28;20472;-79
2022/01/13 08:44:11;;;;;;;6.07;5.40;;;16.80;56.70;;;;;;5113487;28;20038;-80
2022/01/13 08:46:37;;;;;;;7.15;5.07;;;16.80;56.70;;;;;;5110843;28;20510;-80
2022/01/13 08:49:03;;;;;;;7.55;5.43;;;16.70;57.10;;;;;;5110713;28;20011;-81
2022/01/13 08:51:28;;;;;;;6.95;5.07;;;16.70;56.60;;;;;;5110276;28;20037;-82
2022/01/13 08:53:54;;;;;;;7.65;5.18;;;16.70;56.50;;;;;;5111221;28;20028;-82
2022/01/13 08:56:21;;;;;;;8.15;5.53;;;16.60;56.50;;;;;;5111105;28;20390;-79
2022/01/13 08:58:47;;;;;;;9.48;6.18;;;16.60;56.50;;;;;;5112604;28;20111;-79
2022/01/13 09:01:13;;;;;;;9.88;5.53;;;16.60;56.40;;;;;;5096166;28;20122;-80
2022/01/13 09:03:39;;;;;;;8.20;5.10;;;16.60;56.40;;;;;;5115446;28;20024;-81
2022/01/13 09:06:05;;;;;;;9.73;6.35;;;16.50;56.40;;;;;;5115046;28;20030;-80
2022/01/13 09:08:30;;;;;;;11.38;6.22;;;16.50;56.30;;;;;;5114845;28;20050;-79
2022/01/13 09:10:57;;;;;;;9.95;6.30;;;16.50;56.40;;;;;;5114614;28;20404;-79
2022/01/13 09:13:24;;;;;;;10.50;6.90;;;16.50;56.40;;;;;;5096068;28;20019;-79
2022/01/13 09:16:00;;;;;;;12.82;6.68;;;16.50;56.40;;;;;;5114054;28;20080;-79
2022/01/13 09:18:47;;;;;;;9.73;6.60;;;16.50;56.30;;;;;;5111166;28;20027;-80
2022/01/13 09:21:13;;;;;;;9.50;6.47;;;16.40;56.20;;;;;;5112114;28;20502;-79
2022/01/13 09:23:39;;;;;;;10.18;7.07;;;16.40;56.20;;;;;;5096718;28;20047;-78
2022/01/13 09:26:05;;;;;;;11.50;6.35;;;16.40;56.20;;;;;;5114480;28;20068;-78
2022/01/13 09:28:32;;;;;;;10.15;6.65;;;16.40;56.10;;;;;;5114349;28;20441;-79
2022/01/13 09:30:58;;;;;;;10.70;6.45;;;16.40;56.10;;;;;;5113972;28;20179;-81
2022/01/13 09:33:25;;;;;;;9.13;6.15;;;16.40;56.00;;;;;;5114239;28;20106;-79
2022/01/13 09:35:51;;;;;;;8.93;6.15;;;16.40;56.00;;;;;;5114458;28;20019;-79
2022/01/13 09:38:16;;;;;;;8.10;5.57;;;16.40;55.90;;;;;;5095844;28;20043;-81
2022/01/13 09:40:45;;;;;;;9.40;6.13;;;16.40;55.90;;;;;;5113925;28;20020;-79
2022/01/13 09:43:11;;;;;;;9.55;6.38;;;16.40;55.90;;;;;;5113737;28;20020;-79
2022/01/13 09:45:37;;;;;;;8.50;5.63;;;16.40;55.90;;;;;;5114539;28;20098;-80
2022/01/13 09:48:02;;;;;;;7.93;6.20;;;16.40;56.00;;;;;;5095489;28;20110;-78
2022/01/13 09:50:28;;;;;;;8.15;5.93;;;16.40;56.00;;;;;;5113305;28;20031;-80
2022/01/13 09:52:54;;;;;;;9.88;6.07;;;16.40;56.00;;;;;;5113815;28;20487;-79
2022/01/13 09:55:20;;;;;;;9.13;5.63;;;16.40;56.00;;;;;;5113207;28;20023;-79
2022/01/13 09:57:51;;;;;;;8.60;5.93;;;16.40;55.90;;;;;;5095592;28;20380;-79
2022/01/13 10:00:21;;;;;;;7.65;5.22;;;16.40;55.90;;;;;;5094675;28;20069;-80
2022/01/13 10:02:47;;;;;;;7.20;5.38;;;16.40;55.80;;;;;;5113529;28;20099;-79
2022/01/13 10:05:16;;;;;;;8.23;5.25;;;16.40;55.80;;;;;;5113745;28;20104;-80
2022/01/13 10:07:43;;;;;;;7.45;5.43;;;16.40;55.70;;;;;;5094966;28;20023;-81
2022/01/13 10:10:16;;;;;;;8.52;6.03;;;16.30;55.70;;;;;;5112767;28;20372;-80
2022/01/13 10:12:44;;;;;;;6.82;4.70;;;16.40;55.70;;;;;;5095534;28;20027;-80
2022/01/13 10:17:58;;;;;;;6.80;4.78;;;16.40;55.70;;;;;;5113513;28;20103;-78
2022/01/13 10:20:25;;;;;;;6.55;5.00;;;16.40;55.60;;;;;;5111724;28;20028;-79
2022/01/13 10:22:51;;;;;;;7.70;5.10;;;16.40;55.60;;;;;;5094233;28;20047;-79
2022/01/13 10:25:31;;;;;;;7.88;4.97;;;16.40;55.50;;;;;;5094133;28;20053;-80
2022/01/13 10:28:20;;;;;;;9.52;5.63;;;16.40;55.50;;;;;;5110697;28;20023;-79
2022/01/13 10:30:55;;;;;;;7.10;5.22;;;16.40;55.60;;;;;;5097332;28;20023;-78
2022/01/13 10:33:29;;;;;;;6.57;4.72;;;16.40;55.60;;;;;;5111641;28;20080;-79
2022/01/13 10:36:13;;;;;;;7.93;4.97;;;16.40;55.50;;;;;;5094143;28;20031;-79
2022/01/13 10:39:05;;;;;;;6.80;5.03;;;16.40;55.50;;;;;;5113637;28;20043;-79
2022/01/13 10:44:18;;;;;;;6.15;4.45;;;16.40;55.40;;;;;;5112955;28;20059;-78
2022/01/13 10:47:05;;;;;;;6.07;4.47;;;16.40;55.30;;;;;;5094944;28;20028;-79
2022/01/13 10:49:40;;;;;;;6.82;4.85;;;16.40;55.30;;;;;;5112418;28;20502;-80
2022/01/13 10:52:35;;;;;;;5.00;4.10;;;16.40;55.30;;;;;;5113081;28;20020;-79
2022/01/13 10:55:21;;;;;;;7.18;5.20;;;16.40;55.20;;;;;;5090361;28;20065;-79
2022/01/13 10:57:47;;;;;;;7.03;4.57;;;16.40;55.20;;;;;;5112577;28;20040;-79
2022/01/13 11:00:16;;;;;;;6.63;4.82;;;16.40;55.20;;;;;;5093585;28;20499;-79
2022/01/13 11:02:43;;;;;;;8.70;5.20;;;16.40;55.10;;;;;;5111442;28;20023;-79
2022/01/13 11:05:10;;;;;;;7.45;4.53;;;16.40;55.10;;;;;;5112602;28;20079;-78
2022/01/13 11:07:37;;;;;;;6.40;4.72;;;16.40;55.10;;;;;;5094010;28;20511;-80
2022/01/13 11:10:06;;;;;;;6.82;4.43;;;16.40;55.10;;;;;;5112358;28;20036;-79
2022/01/13 11:12:42;;;;;;;6.53;4.65;;;16.40;55.10;;;;;;5111491;28;20103;-81
2022/01/13 11:15:17;;;;;;;6.85;4.53;;;16.40;55.00;;;;;;5112632;28;20503;-79
2022/01/13 11:17:45;;;;;;;7.20;4.80;;;16.50;55.00;;;;;;5111018;28;20037;-78
2022/01/13 11:20:19;;;;;;;7.85;4.55;;;16.50;54.90;;;;;;5093782;28;20564;-80
2022/01/13 11:22:50;;;;;;;7.68;5.20;;;16.50;54.90;;;;;;5108593;28;20016;-80
2022/01/13 11:25:19;;;;;;;6.25;4.35;;;16.50;54.90;;;;;;5110478;28;20035;-78
2022/01/13 11:27:45;;;;;;;7.20;4.63;;;16.50;54.90;;;;;;5110434;28;20023;-79
2022/01/13 11:30:18;;;;;;;9.27;4.30;;;16.60;55.20;;;;;;5110347;28;20020;-79
2022/01/13 11:32:45;;;;;;;6.32;4.68;;;16.60;55.00;;;;;;5110535;28;20023;-79
2022/01/13 11:35:20;;;;;;;7.05;4.15;;;16.70;54.80;;;;;;5110300;28;20023;-78
2022/01/13 11:37:46;;;;;;;6.75;4.15;;;16.90;54.80;;;;;;5110235;28;20057;-81
2022/01/13 11:40:32;;;;;;;4.95;3.53;;;17.10;54.40;;;;;;5110063;28;20368;-80
2022/01/13 11:43:02;;;;;;;5.32;3.97;;;17.40;53.90;;;;;;5109893;28;20027;-86
2022/01/13 11:45:28;;;;;;;5.93;3.90;;;17.70;53.40;;;;;;5091968;28;20050;-79
2022/01/13 11:48:30;;;;;;;7.95;3.92;;;17.90;53.20;;;;;;5110387;28;20016;-82
2022/01/13 11:51:17;;;;;;;8.65;4.13;;;17.90;53.40;;;;;;4987795;28;20045;-79
2022/01/13 11:53:58;;;;;;;5.95;4.00;;;17.80;53.60;;;;;;5103700;28;20039;-79
2022/01/13 11:56:24;;;;;;;6.15;4.15;;;18.10;53.50;;;;;;5088420;28;20399;-84
2022/01/13 11:58:51;;;;;;;5.78;4.00;;;18.10;53.30;;;;;;5091743;28;20030;-82
2022/01/13 12:01:25;;;;;;;5.63;3.63;;;18.10;53.40;;;;;;5109639;28;20040;-78
2022/01/13 12:04:09;;;;;;;5.78;4.00;;;18.20;53.30;;;;;;5110175;28;20095;-79
2022/01/13 12:06:47;;;;;;;6.25;3.83;;;18.20;53.70;;;;;;5109240;28;20050;-78
2022/01/13 12:09:32;;;;;;;5.65;4.28;;;18.30;53.80;;;;;;5110839;28;20387;-78
2022/01/13 12:11:59;;;;;;;7.05;3.78;;;18.40;53.60;;;;;;5093590;28;20051;-77
2022/01/13 12:14:25;;;;;;;5.70;4.10;;;18.50;53.60;;;;;;5111170;28;20027;-78
2022/01/13 12:17:09;;;;;;;8.13;4.60;;;18.60;53.60;;;;;;5092024;28;20007;-77
2022/01/13 12:19:45;;;;;;;8.13;4.45;;;18.60;53.70;;;;;;5108950;28;20112;-77
2022/01/13 12:22:19;;;;;;;6.93;4.43;;;18.80;53.90;;;;;;5108348;28;20379;-78
2022/01/13 12:24:45;;;;;;;5.57;3.92;;;;;;;;;;5107794;28;20023;-79
2022/01/13 12:27:11;;;;;;;6.30;3.88;;;;;;;;;;5092090;28;20395;-78
2022/01/13 12:29:44;;;;;;;7.03;4.63;;;18.90;53.90;;;;;;5109988;28;20417;-77
2022/01/13 12:32:10;;;;;;;8.45;4.00;;;19.20;53.20;;;;;;5108414;28;20019;-78
2022/01/13 12:34:39;;;;;;;7.90;4.38;;;;;;;;;;5112399;28;20760;-78
2022/01/13 12:37:14;;;;;;;7.03;4.78;;;;;;;;;;5113843;28;20492;-78
2022/01/13 12:39:52;;;;;;;7.28;5.05;;;;;;;;;;5113846;28;20546;-78
2022/01/13 12:42:24;;;;;;;6.93;4.13;;;;;;;;;;5112019;28;20100;-78
2022/01/13 12:47:36;;;;;;;5.45;4.20;;;19.60;52.10;;;;;;5098494;28;20168;-79
2022/01/13 12:50:11;;;;;;;6.30;4.78;;;;;;;;;;5115443;28;20030;-75
2022/01/13 12:52:37;;;;;;;6.13;4.22;;;19.70;52.50;;;;;;5115765;28;20110;-79
2022/01/13 12:55:03;;;;;;;6.25;4.43;;;19.50;52.70;;;;;;5114211;28;20098;-75
2022/01/13 12:57:29;;;;;;;6.80;4.70;;;;;;;;;;5119081;27;20842;-75
2022/01/13 12:59:56;;;;;;;9.80;4.88;;;19.30;53.50;;;;;;5129234;27;20030;-75
2022/01/13 13:02:22;;;;;;;6.43;4.57;;;19.20;53.50;;;;;;5131838;27;20045;-75
2022/01/13 13:04:48;;;;;;;7.68;4.63;;;19.20;53.50;;;;;;5135736;27;20471;-75
2022/01/13 13:07:13;;;;;;;7.53;4.15;;;19.20;53.50;;;;;;5135388;27;20031;-77
2022/01/13 13:09:39;;;;;;;6.85;4.30;;;19.10;53.40;;;;;;5117338;27;20023;-75
2022/01/13 13:12:11;;;;;;;7.07;4.75;;;19.00;53.40;;;;;;5114910;28;20521;-75
2022/01/13 13:17:29;;;;;;;6.60;4.70;;;;;;;;;;5114425;28;20119;-74
2022/01/13 13:19:55;;;;;;;8.45;5.50;;;;;;;;;;5114503;28;20438;-78
2022/01/13 13:22:21;;;;;;;7.07;4.85;;;;;;;;;;5114350;28;20483;-77
2022/01/13 13:24:47;;;;;;;7.95;5.40;;;;;;;;;;5114812;28;20096;-74
2022/01/13 13:27:14;;;;;;;7.65;5.70;;;;;;;;;;5114174;28;20553;-76
2022/01/13 13:29:39;;;;;;;7.30;5.03;;;;;;;;;;5114825;28;20097;-75
2022/01/13 13:32:06;;;;;;;7.68;5.75;;;;;;;;;;5114428;28;20487;-74
2022/01/13 13:34:32;;;;;;;7.18;5.82;;;19.00;53.50;;;;;;5114369;28;20076;-74
2022/01/13 13:36:58;;;;;;;8.35;6.13;;;18.50;54.80;;;;;;5113758;28;20111;-75
2022/01/13 13:39:26;;;;;;;8.45;6.18;;;18.50;54.20;;;;;;5114232;28;20028;-75
2022/01/13 13:41:57;;;;;;;6.82;5.25;;;18.50;54.20;;;;;;5114325;28;20023;-76
2022/01/13 13:44:28;;;;;;;7.60;5.65;;;18.50;54.20;;;;;;5113420;28;20028;-76
2022/01/13 13:47:03;;;;;;;8.95;6.63;;;18.40;54.20;;;;;;5113152;28;20032;-79
2022/01/13 13:49:30;;;;;;;8.18;6.18;;;18.40;54.30;;;;;;5113988;28;20031;-75
2022/01/13 13:51:58;;;;;;;7.20;5.13;;;18.30;54.30;;;;;;5114164;28;20027;-76
2022/01/13 13:54:48;;;;;;;7.50;6.07;;;18.30;54.30;;;;;;5113978;28;20056;-77
2022/01/13 13:57:15;;;;;;;7.47;5.90;;;18.30;54.30;;;;;;5093413;28;20081;-78
2022/01/13 13:59:44;;;;;;;7.38;6.00;;;18.30;54.20;;;;;;5116269;27;20024;-75
2022/01/13 14:02:18;;;;;;;8.48;5.80;;;18.20;54.20;;;;;;5096027;28;20034;-76